createdAt,value
2023-02-14T00:00:21.538Z,21.58
2023-02-14T00:02:49.396Z,21.25
2023-02-14T00:05:16.080Z,21.63
2023-02-14T00:07:42.655Z,23.47
2023-02-14T00:10:10.199Z,21.77
2023-02-14T00:12:36.730Z,22.65
2023-02-14T00:15:03.582Z,22.35
2023-02-14T00:17:30.168Z,20.83
2023-02-14T00:19:56.680Z,22.50
2023-02-14T00:22:23.213Z,21.65
2023-02-14T00:24:49.830Z,21.58
2023-02-14T00:27:16.511Z,22.33
2023-02-14T00:29:43.179Z,22.45
2023-02-14T00:32:10.139Z,21.37
2023-02-14T00:34:36.823Z,21.05
2023-02-14T00:37:06.423Z,22.92
2023-02-14T00:39:33.017Z,21.45
2023-02-14T00:41:59.526Z,20.95
2023-02-14T00:44:26.144Z,23.23
2023-02-14T00:46:52.686Z,22.52
2023-02-14T00:49:19.264Z,23.42
2023-02-14T00:51:45.934Z,24.58
2023-02-14T00:54:12.555Z,23.73
2023-02-14T00:56:39.211Z,23.10
2023-02-14T00:59:05.786Z,22.13
2023-02-14T01:01:32.378Z,24.40
2023-02-14T01:03:58.987Z,23.73
2023-02-14T01:06:25.703Z,21.85
2023-02-14T01:08:52.284Z,22.37
2023-02-14T01:11:21.427Z,23.58
2023-02-14T01:13:49.605Z,22.05
2023-02-14T01:16:20.035Z,21.65
2023-02-14T01:18:48.836Z,20.25
2023-02-14T01:21:21.386Z,20.97
2023-02-14T01:23:50.188Z,23.17
2023-02-14T01:26:17.606Z,22.77
2023-02-14T01:28:44.671Z,22.00
2023-02-14T01:31:15.074Z,21.02
2023-02-14T01:33:43.726Z,21.97
2023-02-14T01:36:19.296Z,26.13
2023-02-14T01:38:46.456Z,22.40
2023-02-14T01:41:13.313Z,23.88
2023-02-14T01:43:51.779Z,24.23
2023-02-14T01:46:18.552Z,21.60
2023-02-14T01:48:45.897Z,24.25
2023-02-14T01:51:14.293Z,23.02
2023-02-14T01:53:40.996Z,24.38
2023-02-14T01:56:13.313Z,24.77
2023-02-14T01:58:44.193Z,24.27
2023-02-14T02:01:14.735Z,24.60
2023-02-14T02:03:49.335Z,26.48
2023-02-14T02:06:21.977Z,24.83
2023-02-14T02:09:26.257Z,25.27
2023-02-14T02:11:52.928Z,24.07
2023-02-14T02:14:21.839Z,23.75
2023-02-14T02:17:23.679Z,24.50
2023-02-14T02:20:02.144Z,24.85
2023-02-14T02:22:42.310Z,25.92
2023-02-14T02:25:52.561Z,24.30
2023-02-14T02:28:24.981Z,24.23
2023-02-14T02:31:13.277Z,24.30
2023-02-14T02:34:03.850Z,24.23
2023-02-14T02:36:50.450Z,25.48
2023-02-14T02:39:49.176Z,23.93
2023-02-14T02:42:31.375Z,25.38
2023-02-14T02:45:12.248Z,25.05
2023-02-14T02:48:06.576Z,24.30
2023-02-14T02:50:41.503Z,24.10
2023-02-14T02:53:14.932Z,23.50
2023-02-14T02:55:44.552Z,24.80
2023-02-14T02:58:11.298Z,24.58
2023-02-14T03:00:37.950Z,25.27
2023-02-14T03:03:05.124Z,25.55
2023-02-14T03:05:34.225Z,26.00
2023-02-14T03:08:00.846Z,27.27
2023-02-14T03:10:32.104Z,26.27
2023-02-14T03:13:10.465Z,27.02
2023-02-14T03:15:49.276Z,28.08
2023-02-14T03:18:44.566Z,28.50
2023-02-14T03:21:14.070Z,29.85
2023-02-14T03:23:50.411Z,28.95
2023-02-14T03:26:20.494Z,28.92
2023-02-14T03:29:12.743Z,29.60
2023-02-14T03:32:03.878Z,29.10
2023-02-14T03:34:38.595Z,28.38
2023-02-14T03:37:17.125Z,30.65
2023-02-14T03:40:22.683Z,30.23
2023-02-14T03:42:54.509Z,28.08
2023-02-14T03:45:27.660Z,28.40
2023-02-14T03:47:58.612Z,29.60
2023-02-14T03:50:28.014Z,28.20
2023-02-14T03:52:58.104Z,28.17
2023-02-14T03:55:36.077Z,29.42
2023-02-14T03:58:20.241Z,28.77
2023-02-14T04:00:50.390Z,28.63
2023-02-14T04:03:19.472Z,29.55
2023-02-14T04:05:47.175Z,29.00
2023-02-14T04:08:26.396Z,28.48
2023-02-14T04:10:54.300Z,28.60
2023-02-14T04:13:21.356Z,29.70
2023-02-14T04:15:48.219Z,29.45
2023-02-14T04:18:15.032Z,29.25
2023-02-14T04:20:41.725Z,28.38
2023-02-14T04:23:08.262Z,28.90
2023-02-14T04:25:34.827Z,30.30
2023-02-14T04:28:01.439Z,29.75
2023-02-14T04:30:28.143Z,29.50
2023-02-14T04:32:54.728Z,28.17
2023-02-14T04:35:21.408Z,29.37
2023-02-14T04:37:47.958Z,28.73
2023-02-14T04:40:14.934Z,29.30
2023-02-14T04:42:41.484Z,29.35
2023-02-14T04:45:08.500Z,30.30
2023-02-14T04:47:35.036Z,30.77
2023-02-14T04:50:01.702Z,29.70
2023-02-14T04:52:28.328Z,29.27
2023-02-14T04:54:55.042Z,30.13
2023-02-14T04:57:21.805Z,33.17
2023-02-14T04:59:48.531Z,32.33
2023-02-14T05:02:15.447Z,32.47
2023-02-14T05:04:42.218Z,33.80
2023-02-14T05:07:08.891Z,34.10
2023-02-14T05:09:35.588Z,34.67
2023-02-14T05:12:02.178Z,33.67
2023-02-14T05:14:28.700Z,33.75
2023-02-14T05:16:55.338Z,32.63
2023-02-14T05:19:21.958Z,32.28
2023-02-14T05:21:48.637Z,33.33
2023-02-14T05:24:16.292Z,33.23
2023-02-14T05:26:43.048Z,30.13
2023-02-14T05:29:09.683Z,31.65
2023-02-14T05:31:36.471Z,31.55
2023-02-14T05:34:05.388Z,32.55
2023-02-14T05:36:31.931Z,34.23
2023-02-14T05:38:58.536Z,34.67
2023-02-14T05:41:25.237Z,33.88
2023-02-14T05:43:51.820Z,31.55
2023-02-14T05:46:18.475Z,33.45
2023-02-14T05:48:45.076Z,30.93
2023-02-14T05:51:11.705Z,32.75
2023-02-14T05:53:38.742Z,33.63
2023-02-14T05:56:05.917Z,31.10
2023-02-14T05:58:32.834Z,31.40
2023-02-14T06:01:00.014Z,30.20
2023-02-14T06:03:27.185Z,30.35
2023-02-14T06:05:53.777Z,31.25
2023-02-14T06:08:20.393Z,30.05
2023-02-14T06:10:46.952Z,30.02
2023-02-14T06:13:13.631Z,30.50
2023-02-14T06:15:40.219Z,30.45
2023-02-14T06:18:07.107Z,34.83
2023-02-14T06:20:34.013Z,35.25
2023-02-14T06:23:01.475Z,35.30
2023-02-14T06:25:28.196Z,32.40
2023-02-14T06:27:58.861Z,32.83
2023-02-14T06:30:26.710Z,32.47
2023-02-14T06:32:53.512Z,34.70
2023-02-14T06:35:23.137Z,36.67
2023-02-14T06:37:49.876Z,35.70
2023-02-14T06:40:26.800Z,34.42
2023-02-14T06:42:53.479Z,34.58
2023-02-14T06:45:24.755Z,35.78
2023-02-14T06:47:51.586Z,38.15
2023-02-14T06:50:18.540Z,31.77
2023-02-14T06:52:47.035Z,32.60
2023-02-14T06:55:13.773Z,29.70
2023-02-14T06:57:40.663Z,39.05
2023-02-14T07:00:08.516Z,34.13
2023-02-14T07:02:35.385Z,34.43
2023-02-14T07:05:02.028Z,34.15
2023-02-14T07:07:28.845Z,33.15
2023-02-14T07:09:55.866Z,33.83
2023-02-14T07:12:22.448Z,30.90
2023-02-14T07:14:49.045Z,28.80
2023-02-14T07:17:19.275Z,29.90
2023-02-14T07:19:45.871Z,29.65
2023-02-14T07:22:12.490Z,30.23
2023-02-14T07:24:39.144Z,30.75
2023-02-14T07:27:05.879Z,29.20
2023-02-14T07:32:13.951Z,28.42
2023-02-14T07:34:40.716Z,27.20
2023-02-14T07:37:07.487Z,31.10
2023-02-14T07:39:34.268Z,28.80
2023-02-14T07:42:00.941Z,27.52
2023-02-14T07:44:27.658Z,32.92
2023-02-14T07:46:56.351Z,28.58
2023-02-14T07:49:24.133Z,28.17
2023-02-14T07:51:50.741Z,29.17
2023-02-14T07:54:18.383Z,27.83
2023-02-14T07:56:46.160Z,26.90
2023-02-14T07:59:14.826Z,26.80
2023-02-14T08:01:44.416Z,27.35
2023-02-14T08:04:11.493Z,26.87
2023-02-14T08:06:39.205Z,26.85
2023-02-14T08:09:05.960Z,27.20
2023-02-14T08:11:33.638Z,26.30
2023-02-14T08:14:02.779Z,26.42
2023-02-14T08:16:33.303Z,26.33
2023-02-14T08:19:00.636Z,27.75
2023-02-14T08:21:27.856Z,29.35
2023-02-14T08:23:54.533Z,31.08
2023-02-14T08:26:21.426Z,31.25
2023-02-14T08:28:48.324Z,29.97
2023-02-14T08:31:34.695Z,30.23
2023-02-14T08:34:02.082Z,31.15
2023-02-14T08:36:28.724Z,31.13
2023-02-14T08:38:55.443Z,30.83
2023-02-14T08:41:22.087Z,30.00
2023-02-14T08:43:50.691Z,29.17
2023-02-14T08:46:17.468Z,26.88
2023-02-14T08:48:47.228Z,27.90
2023-02-14T08:51:14.976Z,29.13
2023-02-14T08:53:42.911Z,30.77
2023-02-14T08:56:12.033Z,30.60
2023-02-14T08:58:39.220Z,30.77
2023-02-14T09:01:15.355Z,26.27
2023-02-14T09:03:43.031Z,26.80
2023-02-14T09:06:19.176Z,25.37
2023-02-14T09:08:46.604Z,25.33
2023-02-14T09:11:22.393Z,25.17
2023-02-14T09:13:50.826Z,23.92
2023-02-14T09:16:18.627Z,26.50
2023-02-14T09:18:46.937Z,25.43
2023-02-14T09:21:19.060Z,28.13
2023-02-14T09:23:45.952Z,28.17
2023-02-14T09:26:14.330Z,26.88
2023-02-14T09:28:41.289Z,29.38
2023-02-14T09:31:10.260Z,29.30
2023-02-14T09:33:37.265Z,32.10
2023-02-14T09:36:06.631Z,32.35
2023-02-14T09:38:33.148Z,31.35
2023-02-14T09:41:00.107Z,29.45
2023-02-14T09:43:38.231Z,27.87
2023-02-14T09:46:11.534Z,26.15
2023-02-14T09:48:45.390Z,25.38
2023-02-14T09:51:16.277Z,26.13
2023-02-14T09:53:51.560Z,24.65
2023-02-14T09:56:51.888Z,24.83
2023-02-14T09:59:28.994Z,23.85
2023-02-14T10:02:07.956Z,23.55
2023-02-14T10:04:42.767Z,23.17
2023-02-14T10:07:27.342Z,26.55
2023-02-14T10:10:14.090Z,23.43
2023-02-14T10:12:50.554Z,23.58
2023-02-14T10:15:25.661Z,23.55
2023-02-14T10:18:01.028Z,24.98
2023-02-14T10:20:35.222Z,23.33
2023-02-14T10:23:06.820Z,22.50
2023-02-14T10:25:46.312Z,21.35
2023-02-14T10:28:16.833Z,20.33
2023-02-14T10:30:55.243Z,20.48
2023-02-14T10:33:27.956Z,18.05
2023-02-14T10:36:10.456Z,17.50
2023-02-14T10:39:00.889Z,18.50
2023-02-14T10:41:40.953Z,18.40
2023-02-14T10:44:26.434Z,18.83
2023-02-14T10:47:13.147Z,17.17
2023-02-14T10:49:54.855Z,17.60
2023-02-14T10:52:28.602Z,15.63
2023-02-14T10:55:12.421Z,17.75
2023-02-14T10:57:50.844Z,15.43
2023-02-14T11:00:24.209Z,16.92
2023-02-14T11:02:58.296Z,16.20
2023-02-14T11:05:49.056Z,17.05
2023-02-14T11:08:18.825Z,15.43
2023-02-14T11:10:48.573Z,17.15
2023-02-14T11:13:34.364Z,14.05
2023-02-14T11:16:20.489Z,13.53
2023-02-14T11:19:20.028Z,13.43
2023-02-14T11:21:49.679Z,9.80
2023-02-14T11:24:30.047Z,9.95
2023-02-14T11:27:00.826Z,9.98
2023-02-14T11:29:47.755Z,8.53
2023-02-14T11:32:27.156Z,10.88
2023-02-14T11:35:08.934Z,9.77
2023-02-14T11:37:44.506Z,11.07
2023-02-14T11:40:42.456Z,9.43
2023-02-14T11:43:15.099Z,8.40
2023-02-14T11:45:43.967Z,8.90
2023-02-14T11:48:37.691Z,9.10
2023-02-14T11:51:11.864Z,8.25
2023-02-14T11:53:56.346Z,9.57
2023-02-14T11:56:25.377Z,10.97
2023-02-14T13:38:06.975Z,9.53
2023-02-14T13:40:35.764Z,9.80
2023-02-14T13:43:03.012Z,10.30
2023-02-14T13:45:29.630Z,9.43
2023-02-14T13:48:09.235Z,9.85
2023-02-14T13:51:07.766Z,9.40
2023-02-14T13:53:43.292Z,9.55
2023-02-14T13:56:12.585Z,9.77
2023-02-14T13:58:55.970Z,10.30
2023-02-14T14:01:43.340Z,8.93
2023-02-14T14:04:34.291Z,8.77
2023-02-14T14:07:03.718Z,9.63
2023-02-14T14:09:42.252Z,8.18
2023-02-14T14:12:27.033Z,9.15
2023-02-14T14:15:05.782Z,8.60
2023-02-14T14:18:06.658Z,8.13
2023-02-14T14:27:46.071Z,8.80
2023-02-14T14:30:36.409Z,8.43
2023-02-14T14:33:26.088Z,9.13
2023-02-14T14:36:21.330Z,8.45
2023-02-14T14:38:50.527Z,7.75
2023-02-14T14:41:17.868Z,9.57
2023-02-14T14:44:05.698Z,10.50
2023-02-14T14:46:35.837Z,8.73
2023-02-14T14:49:02.949Z,9.57
2023-02-14T14:51:36.152Z,10.10
2023-02-14T14:54:22.127Z,10.30
2023-02-14T14:56:59.200Z,11.25
2023-02-14T14:59:30.325Z,12.00
2023-02-14T15:01:57.330Z,12.93
2023-02-14T15:04:28.789Z,13.05
2023-02-14T15:06:57.284Z,12.82
2023-02-14T15:09:39.302Z,13.93
2023-02-14T15:12:06.855Z,13.93
2023-02-14T15:14:43.820Z,13.80
2023-02-14T15:17:23.558Z,15.13
2023-02-14T15:19:56.888Z,17.38
2023-02-14T15:22:28.020Z,16.55
2023-02-14T15:24:54.866Z,13.90
2023-02-14T15:27:24.879Z,14.63
2023-02-14T15:30:06.183Z,17.20
2023-02-14T15:32:35.336Z,15.15
2023-02-14T15:35:04.501Z,14.57
2023-02-14T15:37:32.169Z,15.87
2023-02-14T15:39:59.582Z,15.77
2023-02-14T15:42:31.188Z,16.65
2023-02-14T15:45:36.711Z,15.30
2023-02-14T15:48:11.658Z,14.57
2023-02-14T15:50:46.828Z,14.53
2023-02-14T15:53:19.275Z,14.75
2023-02-14T15:55:50.354Z,14.32
2023-02-14T15:58:25.451Z,13.90
2023-02-14T16:00:53.500Z,13.82
2023-02-14T16:03:24.290Z,14.27
2023-02-14T16:05:51.747Z,15.55
2023-02-14T16:08:42.347Z,14.77
2023-02-14T16:11:26.794Z,14.88
2023-02-14T16:13:53.822Z,14.88
2023-02-14T16:16:20.443Z,15.40
2023-02-14T16:18:53.329Z,15.25
2023-02-14T16:21:25.982Z,14.57
2023-02-14T16:24:07.876Z,16.50
2023-02-14T16:26:35.940Z,19.80
2023-02-14T16:29:03.542Z,24.70
2023-02-14T16:31:30.829Z,24.92
2023-02-14T16:33:57.458Z,22.65
2023-02-14T16:36:32.960Z,21.98
2023-02-14T16:39:03.464Z,17.17
2023-02-14T16:41:31.439Z,18.23
2023-02-14T16:43:58.440Z,18.17
2023-02-14T16:46:32.995Z,17.42
2023-02-14T16:48:59.708Z,18.92
2023-02-14T16:51:29.538Z,17.65
2023-02-14T16:53:59.334Z,17.40
2023-02-14T16:56:44.746Z,17.60
2023-02-14T16:59:11.425Z,17.10
2023-02-14T17:01:38.326Z,17.67
2023-02-14T17:04:05.242Z,18.30
2023-02-14T17:06:33.861Z,17.53
2023-02-14T17:09:04.457Z,18.35
2023-02-14T17:11:32.508Z,18.05
2023-02-14T17:13:59.422Z,18.25
2023-02-14T17:16:26.064Z,17.95
2023-02-14T17:18:53.013Z,16.87
2023-02-14T17:21:23.909Z,17.13
2023-02-14T17:23:50.994Z,17.17
2023-02-14T17:26:17.542Z,17.23
2023-02-14T17:28:44.614Z,17.05
2023-02-14T17:31:11.283Z,18.47
2023-02-14T17:33:37.904Z,18.73
2023-02-14T17:36:06.462Z,17.83
2023-02-14T17:38:34.511Z,18.33
2023-02-14T17:41:11.053Z,18.00
2023-02-14T17:43:37.719Z,18.53
2023-02-14T17:46:05.202Z,19.60
2023-02-14T17:48:31.923Z,19.25
2023-02-14T17:51:04.270Z,18.95
2023-02-14T17:53:30.881Z,20.00
2023-02-14T17:55:57.553Z,21.73
2023-02-14T17:58:24.480Z,21.27
2023-02-14T18:00:51.170Z,21.42
2023-02-14T18:03:17.714Z,21.77
2023-02-14T18:05:44.328Z,20.95
2023-02-14T18:08:11.011Z,22.63
2023-02-14T18:10:37.844Z,24.35
2023-02-14T18:13:04.486Z,22.38
2023-02-14T18:15:31.051Z,24.63
2023-02-14T18:17:57.608Z,32.33
2023-02-14T18:20:24.220Z,34.37
2023-02-14T18:22:50.755Z,34.22
2023-02-14T18:25:17.484Z,34.88
2023-02-14T18:27:44.018Z,34.83
2023-02-14T18:30:11.005Z,33.30
2023-02-14T18:32:37.623Z,32.10
2023-02-14T18:35:04.396Z,30.40
2023-02-14T18:37:31.054Z,31.40
2023-02-14T18:39:57.688Z,29.42
2023-02-14T18:42:24.307Z,37.10
2023-02-14T18:44:51.058Z,49.73
2023-02-14T18:47:17.679Z,53.10
2023-02-14T18:49:44.268Z,44.70
2023-02-14T18:52:10.928Z,41.90
2023-02-14T18:54:37.488Z,43.17
2023-02-14T18:57:04.118Z,42.63
2023-02-14T18:59:30.687Z,44.30
2023-02-14T19:01:57.268Z,40.65
2023-02-14T19:04:23.898Z,41.08
2023-02-14T19:06:50.810Z,40.08
2023-02-14T19:09:17.458Z,40.20
2023-02-14T19:11:44.474Z,39.63
2023-02-14T19:14:11.303Z,39.15
2023-02-14T19:16:42.688Z,38.83
2023-02-14T19:19:10.318Z,38.53
2023-02-14T19:21:36.960Z,39.17
2023-02-14T19:24:05.743Z,39.17
2023-02-14T19:26:34.656Z,37.70
2023-02-14T19:29:04.816Z,36.42
2023-02-14T19:31:31.720Z,34.88
2023-02-14T19:33:58.544Z,40.03
2023-02-14T19:36:25.081Z,37.47
2023-02-14T19:38:52.873Z,39.58
2023-02-14T19:41:28.741Z,37.50
2023-02-14T19:43:57.149Z,38.33
2023-02-14T19:46:25.096Z,37.03
2023-02-14T19:48:52.299Z,38.55
2023-02-14T19:51:27.010Z,34.17
2023-02-14T19:53:55.162Z,35.70
2023-02-14T19:56:27.283Z,34.40
2023-02-14T19:58:54.621Z,33.57
2023-02-14T20:01:30.549Z,33.05
2023-02-14T20:03:57.906Z,33.30
2023-02-14T20:06:26.855Z,35.25
2023-02-14T20:08:53.599Z,34.55
2023-02-14T20:11:29.043Z,33.33
2023-02-14T20:13:55.739Z,33.05
2023-02-14T20:16:27.095Z,34.15
2023-02-14T20:18:57.021Z,34.28
2023-02-14T20:21:25.339Z,34.88
2023-02-14T20:23:52.496Z,32.77
2023-02-14T20:26:19.602Z,31.60
2023-02-14T20:28:47.283Z,43.45
2023-02-14T20:31:15.879Z,43.80
2023-02-14T20:33:42.587Z,42.33
2023-02-14T20:36:09.213Z,39.73
2023-02-14T20:38:35.808Z,37.25
2023-02-14T20:41:07.185Z,36.67
2023-02-14T20:43:34.418Z,35.72
2023-02-14T20:46:01.998Z,35.08
2023-02-14T20:48:29.853Z,35.30
2023-02-14T20:50:57.172Z,33.47
2023-02-14T20:53:24.679Z,29.83
2023-02-14T20:55:52.653Z,32.17
2023-02-14T20:58:20.208Z,32.55
2023-02-14T21:00:46.792Z,31.73
2023-02-14T21:03:13.375Z,30.95
2023-02-14T21:05:40.052Z,32.88
2023-02-14T21:08:06.674Z,34.20
2023-02-14T21:10:33.294Z,35.05
2023-02-14T21:12:59.928Z,35.37
2023-02-14T21:15:26.584Z,35.92
2023-02-14T21:17:53.208Z,34.88
2023-02-14T21:20:19.799Z,34.00
2023-02-14T21:22:46.398Z,35.53
2023-02-14T21:25:13.025Z,37.50
2023-02-14T21:27:39.676Z,35.83
2023-02-14T21:30:07.110Z,35.65
2023-02-14T21:32:33.758Z,33.45
2023-02-14T21:35:00.386Z,28.77
2023-02-14T21:37:27.062Z,34.80
2023-02-14T21:39:53.605Z,29.77
2023-02-14T21:42:20.195Z,36.00
2023-02-14T21:44:46.965Z,33.55
2023-02-14T21:47:13.585Z,31.83
2023-02-14T21:49:40.163Z,33.27
2023-02-14T21:52:06.704Z,31.88
2023-02-14T21:54:33.212Z,29.65
2023-02-14T21:56:59.850Z,31.88
2023-02-14T21:59:26.395Z,32.10
2023-02-14T22:01:53.129Z,33.53
2023-02-14T22:04:19.858Z,29.52
2023-02-14T22:06:46.453Z,23.58
2023-02-14T22:09:14.205Z,18.42
2023-02-14T22:11:40.929Z,20.08
2023-02-14T22:14:07.556Z,17.53
2023-02-14T22:16:34.235Z,15.00
2023-02-14T22:19:00.949Z,13.00
2023-02-14T22:21:27.975Z,12.73
2023-02-14T22:23:55.364Z,13.48
2023-02-14T22:26:31.448Z,12.30
2023-02-14T22:29:00.097Z,12.20
2023-02-14T22:31:32.535Z,12.23
2023-02-14T22:33:59.256Z,11.68
2023-02-14T22:36:26.001Z,11.50
2023-02-14T22:38:52.606Z,11.97
2023-02-14T22:41:22.461Z,12.35
2023-02-14T22:43:49.051Z,12.40
2023-02-14T22:46:17.976Z,12.90
2023-02-14T22:48:44.944Z,12.43
2023-02-14T22:51:30.295Z,12.00
2023-02-14T22:54:09.404Z,11.95
2023-02-14T22:56:38.411Z,11.82
2023-02-14T22:59:17.422Z,11.48
2023-02-14T23:01:44.394Z,11.63
2023-02-14T23:04:11.510Z,11.17
2023-02-14T23:06:38.390Z,12.38
2023-02-14T23:09:07.816Z,11.38
2023-02-14T23:11:36.946Z,11.95
2023-02-14T23:14:04.520Z,11.05
2023-02-14T23:16:31.802Z,11.33
2023-02-14T23:18:58.654Z,10.85
2023-02-14T23:21:25.228Z,11.60
2023-02-14T23:23:51.895Z,11.77
2023-02-14T23:26:21.697Z,11.88
2023-02-14T23:28:48.326Z,11.23
2023-02-14T23:31:14.912Z,12.27
2023-02-14T23:33:41.518Z,10.73
2023-02-14T23:36:08.379Z,12.45
2023-02-14T23:38:34.974Z,11.73
2023-02-14T23:41:09.436Z,11.40
2023-02-14T23:43:35.959Z,11.95
2023-02-14T23:46:02.903Z,11.43
2023-02-14T23:48:29.865Z,12.05
2023-02-14T23:50:59.606Z,11.98
2023-02-14T23:53:26.162Z,12.60
2023-02-14T23:55:52.751Z,12.55
2023-02-14T23:58:19.353Z,12.95
